createdAt,value
2017-10-01T00:00:54.458Z,37.40
2017-10-01T00:01:54.453Z,43.40
2017-10-01T00:02:54.449Z,47.90
2017-10-01T00:03:54.443Z,46.50
2017-10-01T00:04:54.439Z,49.50
2017-10-01T00:05:54.433Z,48.60
2017-10-01T00:06:54.434Z,46.60
2017-10-01T00:07:54.429Z,42.70
2017-10-01T00:08:54.425Z,41.10
2017-10-01T00:09:54.419Z,36.30
2017-10-01T00:10:54.410Z,38.30
2017-10-01T00:11:54.406Z,43.50
2017-10-01T00:12:54.399Z,38.50
2017-10-01T00:13:54.396Z,37.70
2017-10-01T00:14:54.396Z,46.60
2017-10-01T00:15:54.390Z,38.60
2017-10-01T00:16:54.385Z,39.00
2017-10-01T00:17:54.380Z,40.60
2017-10-01T00:18:54.375Z,33.90
2017-10-01T00:19:54.371Z,35.50
2017-10-01T00:20:54.364Z,38.90
2017-10-01T00:21:54.360Z,40.20
2017-10-01T00:22:54.352Z,35.40
2017-10-01T00:23:54.346Z,37.40
2017-10-01T00:24:54.342Z,38.10
2017-10-01T00:25:54.340Z,37.40
2017-10-01T00:26:54.332Z,36.90
2017-10-01T00:27:54.327Z,37.00
2017-10-01T00:28:54.321Z,37.70
2017-10-01T00:29:54.317Z,37.20
2017-10-01T00:30:54.315Z,40.30
2017-10-01T00:31:54.313Z,39.00
2017-10-01T00:32:54.304Z,43.60
2017-10-01T00:33:54.301Z,31.40
2017-10-01T00:34:54.297Z,34.40
2017-10-01T00:35:54.290Z,41.80
2017-10-01T00:36:54.285Z,38.70
2017-10-01T00:37:54.281Z,41.90
2017-10-01T00:38:54.271Z,41.60
2017-10-01T00:39:54.267Z,39.90
2017-10-01T00:40:54.262Z,39.10
2017-10-01T00:41:54.257Z,35.70
2017-10-01T00:42:54.252Z,41.10
2017-10-01T00:43:54.246Z,43.30
2017-10-01T00:44:54.241Z,41.40
2017-10-01T00:45:54.237Z,43.90
2017-10-01T00:46:54.235Z,43.80
2017-10-01T00:47:54.232Z,47.40
2017-10-01T00:48:54.226Z,44.40
2017-10-01T00:49:54.221Z,48.40
2017-10-01T00:50:54.217Z,41.50
2017-10-01T00:51:54.212Z,41.40
2017-10-01T00:52:54.206Z,57.70
2017-10-01T00:53:54.200Z,41.00
2017-10-01T00:54:54.191Z,47.20
2017-10-01T00:55:54.188Z,44.70
2017-10-01T00:56:54.181Z,52.60
2017-10-01T00:57:54.178Z,52.80
2017-10-01T00:58:54.172Z,41.10
2017-10-01T00:59:54.167Z,44.30
2017-10-01T01:00:54.163Z,49.40
2017-10-01T01:01:54.158Z,57.40
2017-10-01T01:02:54.157Z,48.00
2017-10-01T01:03:54.152Z,50.70
2017-10-01T01:04:54.146Z,43.90
2017-10-01T01:05:54.142Z,54.80
2017-10-01T01:06:54.136Z,53.20
2017-10-01T01:07:54.134Z,53.50
2017-10-01T01:08:54.127Z,44.20
2017-10-01T01:09:54.121Z,53.60
2017-10-01T01:10:54.113Z,42.70
2017-10-01T01:11:54.109Z,54.50
2017-10-01T01:12:54.103Z,53.90
2017-10-01T01:13:54.097Z,55.90
2017-10-01T01:14:54.097Z,50.10
2017-10-01T01:15:54.093Z,52.30
2017-10-01T01:16:54.089Z,43.50
2017-10-01T01:17:54.082Z,55.40
2017-10-01T01:18:54.073Z,57.90
2017-10-01T01:19:54.067Z,51.40
2017-10-01T01:20:54.063Z,50.50
2017-10-01T01:21:54.057Z,52.90
2017-10-01T01:22:54.051Z,54.70
2017-10-01T01:23:54.048Z,50.30
2017-10-01T01:24:54.042Z,52.20
2017-10-01T01:25:54.040Z,55.20
2017-10-01T01:26:54.036Z,55.00
2017-10-01T01:27:54.031Z,44.70
2017-10-01T01:28:54.027Z,55.40
2017-10-01T01:29:54.022Z,51.90
2017-10-01T01:30:54.017Z,47.10
2017-10-01T01:31:54.012Z,61.80
2017-10-01T01:32:54.006Z,48.40
2017-10-01T01:33:53.999Z,49.50
2017-10-01T01:34:53.992Z,42.60
2017-10-01T01:35:53.987Z,55.70
2017-10-01T01:36:53.981Z,55.50
2017-10-01T01:37:53.976Z,52.50
2017-10-01T01:38:53.971Z,56.20
2017-10-01T01:39:53.966Z,59.70
2017-10-01T01:40:53.961Z,64.40
2017-10-01T01:41:53.955Z,70.10
2017-10-01T01:42:53.954Z,56.90
2017-10-01T01:43:53.951Z,55.90
2017-10-01T01:44:53.943Z,58.70
2017-10-01T01:45:53.942Z,59.40
2017-10-01T01:46:53.935Z,56.00
2017-10-01T01:47:53.930Z,59.60
2017-10-01T01:48:53.925Z,58.10
2017-10-01T01:49:53.919Z,58.30
2017-10-01T01:50:53.909Z,54.40
2017-10-01T01:51:53.906Z,60.10
2017-10-01T01:52:53.901Z,55.40
2017-10-01T01:53:53.895Z,55.70
2017-10-01T01:54:53.891Z,59.00
2017-10-01T01:55:53.886Z,57.10
2017-10-01T01:56:53.879Z,55.50
2017-10-01T01:57:53.874Z,57.30
2017-10-01T01:58:53.874Z,49.80
2017-10-01T01:59:53.868Z,54.90
2017-10-01T02:00:53.863Z,54.90
2017-10-01T02:01:53.859Z,54.10
2017-10-01T02:02:53.853Z,55.40
2017-10-01T02:03:53.849Z,55.00
2017-10-01T02:04:53.842Z,56.10
2017-10-01T02:05:53.855Z,61.50
2017-10-01T02:06:53.829Z,59.00
2017-10-01T02:07:53.823Z,62.10
2017-10-01T02:08:53.820Z,57.80
2017-10-01T02:09:53.813Z,57.70
2017-10-01T02:10:53.809Z,62.60
2017-10-01T02:11:53.804Z,62.80
2017-10-01T02:12:53.799Z,51.30
2017-10-01T02:13:53.794Z,60.70
2017-10-01T02:14:53.793Z,56.60
2017-10-01T02:15:53.789Z,51.40
2017-10-01T02:16:53.782Z,57.00
2017-10-01T02:17:53.778Z,50.00
2017-10-01T02:18:53.773Z,49.50
2017-10-01T02:19:53.768Z,53.50
2017-10-01T02:20:53.762Z,52.70
2017-10-01T02:21:53.764Z,54.90
2017-10-01T02:22:53.749Z,52.00
2017-10-01T02:23:53.743Z,51.60
2017-10-01T02:24:53.738Z,57.10
2017-10-01T02:25:53.731Z,49.20
2017-10-01T02:26:53.727Z,50.10
2017-10-01T02:27:53.723Z,55.00
2017-10-01T02:28:53.716Z,54.20
2017-10-01T02:29:53.712Z,54.50
2017-10-01T02:30:53.712Z,55.60
2017-10-01T02:31:53.706Z,53.40
2017-10-01T02:32:53.700Z,47.30
2017-10-01T02:33:53.695Z,49.90
2017-10-01T02:34:53.691Z,48.70
2017-10-01T02:35:53.685Z,48.70
2017-10-01T02:36:53.680Z,50.80
2017-10-01T02:37:53.674Z,51.90
2017-10-01T02:38:53.672Z,50.60
2017-10-01T02:39:53.661Z,48.30
2017-10-01T02:40:53.655Z,44.90
2017-10-01T02:41:53.651Z,45.00
2017-10-01T02:42:53.646Z,43.90
2017-10-01T02:43:53.640Z,45.90
2017-10-01T02:44:53.635Z,46.10
2017-10-01T02:45:53.630Z,49.30
2017-10-01T02:46:53.629Z,50.20
2017-10-01T02:47:53.624Z,41.70
2017-10-01T02:48:53.617Z,44.30
2017-10-01T02:49:53.613Z,45.50
2017-10-01T02:50:53.609Z,46.60
2017-10-01T02:51:53.602Z,44.60
2017-10-01T02:52:53.596Z,43.60
2017-10-01T02:53:53.592Z,46.40
2017-10-01T02:54:53.586Z,41.80
2017-10-01T02:55:53.579Z,48.60
2017-10-01T02:56:53.571Z,43.20
2017-10-01T02:57:53.567Z,45.40
2017-10-01T02:58:53.562Z,47.00
2017-10-01T02:59:53.558Z,45.30
2017-10-01T03:00:53.553Z,45.70
2017-10-01T03:01:53.544Z,45.10
2017-10-01T03:02:53.544Z,45.40
2017-10-01T03:03:53.541Z,46.80
2017-10-01T03:04:53.533Z,44.70
2017-10-01T03:05:53.529Z,49.10
2017-10-01T03:06:53.524Z,42.10
2017-10-01T03:07:53.519Z,44.40
2017-10-01T03:08:53.512Z,41.70
2017-10-01T03:09:53.511Z,42.00
2017-10-01T03:10:53.510Z,45.70
2017-10-01T03:11:53.493Z,43.60
2017-10-01T03:12:53.487Z,39.90
2017-10-01T03:13:53.482Z,43.50
2017-10-01T03:14:53.477Z,47.00
2017-10-01T03:15:53.472Z,46.00
2017-10-01T03:16:53.465Z,47.10
2017-10-01T03:17:53.461Z,45.10
2017-10-01T03:18:53.460Z,48.00
2017-10-01T03:19:53.453Z,48.40
2017-10-01T03:20:53.452Z,49.40
2017-10-01T03:21:53.446Z,46.80
2017-10-01T03:22:53.434Z,50.50
2017-10-01T03:23:53.433Z,49.40
2017-10-01T03:24:53.422Z,45.50
2017-10-01T03:25:53.417Z,48.80
2017-10-01T03:26:53.416Z,45.50
2017-10-01T03:27:53.411Z,45.80
2017-10-01T03:28:53.404Z,55.00
2017-10-01T03:29:53.400Z,46.90
2017-10-01T03:30:53.396Z,49.60
2017-10-01T03:31:53.390Z,48.20
2017-10-01T03:32:53.382Z,51.50
2017-10-01T03:33:53.378Z,49.20
2017-10-01T03:34:53.368Z,51.50
2017-10-01T03:35:53.364Z,48.80
2017-10-01T03:36:53.358Z,46.30
2017-10-01T03:37:53.352Z,47.90
2017-10-01T03:38:53.348Z,45.20
2017-10-01T03:39:53.343Z,45.70
2017-10-01T03:40:53.336Z,50.40
2017-10-01T03:41:53.331Z,47.00
2017-10-01T03:42:53.331Z,45.90
2017-10-01T03:43:53.325Z,47.70
2017-10-01T03:44:53.318Z,44.40
2017-10-01T03:45:53.314Z,43.90
2017-10-01T03:46:53.308Z,41.40
2017-10-01T03:47:53.302Z,44.80
2017-10-01T03:48:53.297Z,44.00
2017-10-01T03:49:53.292Z,46.10
2017-10-01T03:50:53.305Z,41.30
2017-10-01T03:51:53.277Z,41.20
2017-10-01T03:52:53.272Z,43.60
2017-10-01T03:53:53.266Z,43.60
2017-10-01T03:54:53.262Z,47.70
2017-10-01T03:55:53.256Z,42.30
2017-10-01T03:56:53.250Z,41.50
2017-10-01T03:57:53.245Z,42.00
2017-10-01T03:58:53.243Z,46.20
2017-10-01T03:59:53.239Z,42.70
2017-10-01T04:00:53.236Z,43.10
2017-10-01T04:01:53.225Z,40.50
2017-10-01T04:02:53.222Z,44.30
2017-10-01T04:03:53.217Z,47.90
2017-10-01T04:04:53.210Z,34.70
2017-10-01T04:05:53.206Z,39.30
2017-10-01T04:06:53.197Z,38.00
2017-10-01T04:07:53.191Z,40.50
2017-10-01T04:08:53.183Z,36.10
2017-10-01T04:09:53.179Z,39.70
2017-10-01T04:10:53.174Z,43.40
2017-10-01T04:11:53.169Z,33.50
2017-10-01T04:12:53.162Z,40.40
2017-10-01T04:13:53.157Z,36.40
2017-10-01T04:14:53.156Z,35.90
2017-10-01T04:15:53.150Z,38.20
2017-10-01T04:16:53.145Z,33.80
2017-10-01T04:17:53.140Z,32.70
2017-10-01T04:18:53.134Z,33.80
2017-10-01T04:19:53.129Z,35.40
2017-10-01T04:20:53.131Z,36.10
2017-10-01T04:21:53.121Z,35.00
2017-10-01T04:22:53.108Z,35.00
2017-10-01T04:23:53.102Z,34.70
2017-10-01T04:24:53.097Z,33.80
2017-10-01T04:25:53.091Z,38.50
2017-10-01T04:26:53.090Z,34.20
2017-10-01T04:27:53.084Z,35.70
2017-10-01T04:28:53.078Z,33.70
2017-10-01T04:29:53.073Z,34.30
2017-10-01T04:30:53.064Z,35.10
2017-10-01T04:31:53.059Z,31.70
2017-10-01T04:32:53.053Z,32.50
2017-10-01T04:33:53.047Z,33.00
2017-10-01T04:34:53.044Z,32.70
2017-10-01T04:35:53.037Z,34.30
2017-10-01T04:36:53.032Z,35.40
2017-10-01T04:37:53.024Z,32.40
2017-10-01T04:38:53.024Z,33.50
2017-10-01T04:39:53.019Z,31.80
2017-10-01T04:40:53.029Z,36.70
2017-10-01T04:41:53.009Z,34.40
2017-10-01T04:42:53.001Z,32.40
2017-10-01T04:43:52.998Z,35.40
2017-10-01T04:44:52.991Z,31.50
2017-10-01T04:45:52.986Z,32.80
2017-10-01T04:46:52.977Z,33.80
2017-10-01T04:47:52.972Z,27.50
2017-10-01T04:48:52.965Z,32.70
2017-10-01T04:49:52.959Z,30.70
2017-10-01T04:50:52.954Z,31.50
2017-10-01T04:51:52.950Z,31.70
2017-10-01T04:52:52.944Z,32.30
2017-10-01T04:53:52.939Z,28.80
2017-10-01T04:54:52.938Z,31.20
2017-10-01T04:55:52.933Z,32.60
2017-10-01T04:56:52.927Z,30.10
2017-10-01T04:57:52.922Z,26.80
2017-10-01T04:58:52.916Z,29.10
2017-10-01T04:59:52.912Z,29.30
2017-10-01T05:00:52.905Z,28.80
2017-10-01T05:01:52.902Z,31.50
2017-10-01T05:02:52.892Z,30.40
2017-10-01T05:03:52.885Z,34.50
2017-10-01T05:04:52.882Z,31.60
2017-10-01T05:05:52.876Z,33.50
2017-10-01T05:06:52.870Z,29.90
2017-10-01T05:07:52.867Z,32.30
2017-10-01T05:08:52.862Z,32.00
2017-10-01T05:09:52.854Z,26.70
2017-10-01T05:10:52.857Z,28.60
2017-10-01T05:11:52.850Z,30.40
2017-10-01T05:12:52.844Z,31.60
2017-10-01T05:13:52.839Z,27.20
2017-10-01T05:14:52.834Z,28.10
2017-10-01T05:15:52.829Z,27.70
2017-10-01T05:16:52.829Z,31.20
2017-10-01T05:17:52.818Z,26.40
2017-10-01T05:18:52.808Z,31.80
2017-10-01T05:19:52.804Z,27.70
2017-10-01T05:20:52.797Z,23.60
2017-10-01T05:21:52.793Z,27.90
2017-10-01T05:22:52.788Z,26.60
2017-10-01T05:23:52.783Z,20.90
2017-10-01T05:24:52.777Z,29.00
2017-10-01T05:25:52.772Z,23.50
2017-10-01T05:26:52.770Z,27.10
2017-10-01T05:27:52.766Z,27.50
2017-10-01T05:28:52.760Z,26.00
2017-10-01T05:29:52.756Z,23.00
2017-10-01T05:30:52.745Z,25.70
2017-10-01T05:31:52.741Z,26.50
2017-10-01T05:32:52.734Z,25.00
2017-10-01T05:33:52.728Z,22.40
2017-10-01T05:34:52.727Z,22.50
2017-10-01T05:35:52.724Z,22.00
2017-10-01T05:36:52.716Z,24.00
2017-10-01T05:37:52.710Z,22.60
2017-10-01T05:38:52.707Z,23.40
2017-10-01T05:39:52.700Z,24.00
2017-10-01T05:40:52.695Z,23.40
2017-10-01T05:41:52.690Z,24.30
2017-10-01T05:42:52.678Z,24.10
2017-10-01T05:43:52.675Z,22.00
2017-10-01T05:44:52.668Z,23.80
2017-10-01T05:45:52.665Z,27.00
2017-10-01T05:46:52.659Z,21.70
2017-10-01T05:47:52.655Z,22.00
2017-10-01T05:48:52.648Z,24.20
2017-10-01T05:49:52.643Z,20.50
2017-10-01T05:50:52.641Z,25.00
2017-10-01T05:51:52.636Z,25.40
2017-10-01T05:52:52.630Z,21.60
2017-10-01T05:53:52.631Z,21.70
2017-10-01T05:54:52.619Z,21.40
2017-10-01T05:55:52.614Z,21.50
2017-10-01T05:56:52.609Z,24.20
2017-10-01T05:57:52.604Z,22.90
2017-10-01T05:58:52.598Z,23.00
2017-10-01T05:59:52.591Z,21.90
2017-10-01T06:00:52.584Z,20.30
2017-10-01T06:01:52.580Z,20.80
2017-10-01T06:02:52.573Z,21.30
2017-10-01T06:03:52.569Z,19.60
2017-10-01T06:04:52.561Z,18.60
2017-10-01T06:05:52.558Z,19.90
2017-10-01T06:06:52.557Z,21.10
2017-10-01T06:07:52.551Z,18.60
2017-10-01T06:08:52.546Z,17.80
2017-10-01T06:09:52.542Z,23.50
2017-10-01T06:10:52.538Z,18.70
2017-10-01T06:11:52.533Z,19.00
2017-10-01T06:12:52.527Z,19.30
2017-10-01T06:13:52.522Z,15.40
2017-10-01T06:14:52.514Z,16.40
2017-10-01T06:15:52.509Z,18.20
2017-10-01T06:16:52.504Z,20.00
2017-10-01T06:17:52.499Z,17.90
2017-10-01T06:18:52.499Z,19.70
2017-10-01T06:19:52.490Z,19.90
2017-10-01T06:20:52.488Z,16.90
2017-10-01T06:21:52.482Z,15.90
2017-10-01T06:22:52.482Z,17.80
2017-10-01T06:23:52.478Z,18.10
2017-10-01T06:24:52.472Z,22.20
2017-10-01T06:25:52.468Z,17.10
2017-10-01T06:26:52.465Z,18.00
2017-10-01T06:27:52.459Z,17.20
2017-10-01T06:28:52.456Z,16.80
2017-10-01T06:29:52.455Z,18.90
2017-10-01T06:30:52.442Z,18.60
2017-10-01T06:31:52.440Z,22.00
2017-10-01T06:32:52.433Z,24.70
2017-10-01T06:33:52.432Z,18.70
2017-10-01T06:34:52.430Z,18.60
2017-10-01T06:35:52.427Z,19.60
2017-10-01T06:36:52.422Z,19.10
2017-10-01T06:37:52.418Z,21.00
2017-10-01T06:38:52.410Z,20.20
2017-10-01T06:39:52.406Z,18.40
2017-10-01T06:40:52.402Z,17.50
2017-10-01T06:41:52.398Z,17.60
2017-10-01T06:42:52.394Z,18.10
2017-10-01T06:43:52.390Z,18.60
2017-10-01T06:44:52.387Z,21.40
2017-10-01T06:45:52.382Z,16.00
2017-10-01T06:46:52.382Z,15.20
2017-10-01T06:47:52.378Z,15.90
2017-10-01T06:48:52.373Z,16.40
2017-10-01T06:49:52.369Z,14.30
2017-10-01T06:50:52.367Z,19.20
2017-10-01T06:51:52.363Z,17.20
2017-10-01T06:52:52.357Z,17.50
2017-10-01T06:53:52.356Z,15.80
2017-10-01T06:54:52.349Z,18.80
2017-10-01T06:55:52.345Z,18.40
2017-10-01T06:56:52.340Z,14.70
2017-10-01T06:57:52.337Z,17.10
2017-10-01T06:58:52.333Z,17.80
2017-10-01T06:59:52.330Z,18.50
2017-10-01T07:00:52.327Z,12.90
2017-10-01T07:01:52.324Z,13.90
2017-10-01T07:02:52.325Z,13.00
2017-10-01T07:03:52.324Z,15.80
2017-10-01T07:04:52.321Z,15.90
2017-10-01T07:05:52.318Z,11.20
2017-10-01T07:06:52.315Z,17.80
2017-10-01T07:07:52.313Z,11.60
2017-10-01T07:08:52.312Z,12.70
2017-10-01T07:09:52.309Z,14.90
2017-10-01T07:10:52.304Z,13.00
2017-10-01T07:11:52.302Z,14.70
2017-10-01T07:12:52.305Z,12.30
2017-10-01T07:13:52.298Z,12.40
2017-10-01T07:14:52.296Z,16.90
2017-10-01T07:15:52.296Z,13.60
2017-10-01T07:16:52.292Z,14.30
2017-10-01T07:17:52.293Z,15.70
2017-10-01T07:18:52.296Z,11.10
2017-10-01T07:19:52.293Z,13.40
2017-10-01T07:20:52.291Z,13.70
2017-10-01T07:21:52.289Z,13.10
2017-10-01T07:22:52.290Z,10.70
2017-10-01T07:23:52.288Z,13.60
2017-10-01T07:24:52.286Z,15.50
2017-10-01T07:25:52.288Z,12.80
2017-10-01T07:26:52.279Z,13.20
2017-10-01T07:27:52.279Z,14.00
2017-10-01T07:28:52.276Z,13.40
2017-10-01T07:29:52.275Z,12.30
2017-10-01T07:30:52.274Z,12.40
2017-10-01T07:31:52.274Z,14.30
2017-10-01T07:32:52.271Z,11.90
2017-10-01T07:33:52.272Z,13.60
2017-10-01T07:34:52.274Z,12.50
2017-10-01T07:35:52.286Z,13.10
2017-10-01T07:36:52.278Z,11.30
2017-10-01T07:37:52.273Z,12.00
2017-10-01T07:38:52.270Z,15.20
2017-10-01T07:39:52.270Z,13.30
2017-10-01T07:40:52.269Z,10.50
2017-10-01T07:41:52.268Z,13.20
2017-10-01T07:42:52.276Z,10.30
2017-10-01T07:43:52.277Z,11.50
2017-10-01T07:44:52.276Z,10.80
2017-10-01T07:45:52.279Z,13.10
2017-10-01T07:46:52.279Z,9.70
2017-10-01T07:47:52.279Z,9.60
2017-10-01T07:48:52.281Z,11.40
2017-10-01T07:49:52.282Z,10.40
2017-10-01T07:50:52.281Z,11.30
2017-10-01T07:51:52.283Z,11.20
2017-10-01T07:52:52.283Z,8.70
2017-10-01T07:53:52.285Z,10.50
2017-10-01T07:54:52.287Z,9.30
2017-10-01T07:55:52.290Z,9.40
2017-10-01T07:56:52.297Z,8.80
2017-10-01T07:57:52.294Z,11.10
2017-10-01T07:58:52.304Z,8.80
2017-10-01T07:59:52.307Z,11.30
2017-10-01T08:00:52.309Z,7.90
2017-10-01T08:01:52.313Z,8.60
2017-10-01T08:02:52.319Z,7.50
2017-10-01T08:03:52.322Z,7.90
2017-10-01T08:04:52.326Z,8.70
2017-10-01T08:05:52.334Z,9.20
2017-10-01T08:06:52.333Z,8.00
2017-10-01T08:07:52.339Z,8.50
2017-10-01T08:08:52.350Z,11.10
2017-10-01T08:09:52.356Z,8.90
2017-10-01T08:10:52.357Z,8.40
2017-10-01T08:11:52.361Z,7.80
2017-10-01T08:12:52.368Z,6.50
2017-10-01T08:13:52.395Z,10.60
2017-10-01T08:14:52.386Z,8.10
2017-10-01T08:15:52.392Z,7.80
2017-10-01T08:16:52.400Z,5.40
2017-10-01T08:17:52.407Z,8.30
2017-10-01T08:18:52.413Z,6.50
2017-10-01T08:19:52.421Z,6.50
2017-10-01T08:20:52.431Z,7.30
2017-10-01T08:21:52.435Z,7.90
2017-10-01T08:22:52.438Z,9.20
2017-10-01T08:23:52.446Z,8.20
2017-10-01T08:24:52.457Z,8.40
2017-10-01T08:25:52.462Z,7.80
2017-10-01T08:26:52.470Z,5.90
2017-10-01T08:27:52.480Z,7.60
2017-10-01T08:28:52.525Z,6.70
2017-10-01T08:29:52.494Z,6.20
2017-10-01T08:30:52.507Z,7.90
2017-10-01T08:31:52.515Z,8.30
2017-10-01T08:32:52.524Z,8.20
2017-10-01T08:33:52.533Z,8.60
2017-10-01T08:34:52.543Z,8.90
2017-10-01T08:35:52.551Z,6.20
2017-10-01T08:36:52.560Z,5.90
2017-10-01T08:37:52.570Z,6.80
2017-10-01T08:38:52.575Z,7.40
2017-10-01T08:39:52.585Z,6.20
2017-10-01T08:40:52.592Z,6.00
2017-10-01T08:41:52.603Z,7.00
2017-10-01T08:42:52.617Z,9.20
2017-10-01T08:43:52.628Z,6.90
2017-10-01T08:44:52.635Z,7.30
2017-10-01T08:45:52.646Z,5.50
2017-10-01T08:46:52.653Z,9.40
2017-10-01T08:47:52.665Z,7.10
2017-10-01T08:48:52.673Z,7.10
2017-10-01T08:49:52.682Z,6.10
2017-10-01T08:50:52.694Z,6.60
2017-10-01T08:51:52.707Z,7.70
2017-10-01T08:52:52.716Z,7.80
2017-10-01T08:53:52.734Z,6.80
2017-10-01T08:54:52.741Z,9.70
2017-10-01T08:55:52.752Z,6.90
2017-10-01T08:56:52.764Z,6.90
2017-10-01T08:57:52.774Z,6.70
2017-10-01T08:58:52.786Z,6.30
2017-10-01T08:59:52.797Z,10.40
2017-10-01T09:00:52.807Z,8.00
2017-10-01T09:01:52.818Z,6.60
2017-10-01T09:02:52.825Z,6.90
2017-10-01T09:03:52.838Z,8.80
2017-10-01T09:04:52.846Z,6.70
2017-10-01T09:05:52.859Z,6.90
2017-10-01T09:06:52.870Z,8.10
2017-10-01T09:07:52.881Z,7.70
2017-10-01T09:08:52.891Z,7.70
2017-10-01T09:09:52.902Z,7.30
2017-10-01T09:10:52.920Z,9.80
2017-10-01T09:11:52.932Z,8.30
2017-10-01T09:12:52.940Z,9.30
2017-10-01T09:13:52.954Z,8.60
2017-10-01T09:14:52.964Z,12.40
2017-10-01T09:15:52.976Z,11.30
2017-10-01T09:16:52.989Z,10.30
2017-10-01T09:17:52.998Z,6.80
2017-10-01T09:18:53.008Z,7.70
2017-10-01T09:19:53.017Z,8.10
2017-10-01T09:20:53.028Z,9.40
2017-10-01T09:21:53.041Z,6.60
2017-10-01T09:22:53.050Z,10.70
2017-10-01T09:23:53.061Z,9.50
2017-10-01T09:24:53.071Z,10.30
2017-10-01T09:25:53.083Z,10.20
2017-10-01T09:26:53.110Z,10.60
2017-10-01T09:27:53.109Z,9.40
2017-10-01T09:28:53.119Z,9.10
2017-10-01T09:29:53.130Z,10.80
2017-10-01T09:30:53.141Z,8.60
2017-10-01T09:31:53.153Z,9.70
2017-10-01T09:32:53.161Z,9.50
2017-10-01T09:33:53.173Z,9.60
2017-10-01T09:34:53.180Z,9.80
2017-10-01T09:35:53.191Z,10.10
2017-10-01T09:36:53.200Z,10.00
2017-10-01T09:37:53.211Z,13.40
2017-10-01T09:38:53.220Z,7.90
2017-10-01T09:39:53.234Z,8.10
2017-10-01T09:40:53.243Z,8.40
2017-10-01T09:41:53.254Z,8.50
2017-10-01T09:42:53.270Z,8.30
2017-10-01T09:43:53.281Z,7.50
2017-10-01T09:44:53.291Z,6.90
2017-10-01T09:45:53.304Z,8.50
2017-10-01T09:46:53.312Z,9.10
2017-10-01T09:47:53.323Z,8.10
2017-10-01T09:48:53.332Z,8.90
2017-10-01T09:49:53.345Z,7.00
2017-10-01T09:50:53.362Z,8.30
2017-10-01T09:51:53.373Z,8.30
2017-10-01T09:52:53.385Z,8.30
2017-10-01T09:53:53.395Z,8.00
2017-10-01T09:54:53.407Z,8.00
2017-10-01T09:55:53.420Z,9.80
2017-10-01T09:56:53.431Z,9.00
2017-10-01T09:57:53.442Z,8.40
2017-10-01T09:58:53.450Z,9.00
2017-10-01T09:59:53.459Z,10.40
2017-10-01T10:00:53.470Z,9.70
2017-10-01T10:01:53.483Z,9.50
2017-10-01T10:02:53.492Z,6.00
2017-10-01T10:03:53.503Z,9.60
2017-10-01T10:04:53.513Z,8.30
2017-10-01T10:05:53.524Z,8.10
2017-10-01T10:06:53.538Z,8.20
2017-10-01T10:07:53.554Z,9.80
2017-10-01T10:08:53.558Z,10.10
2017-10-01T10:09:53.570Z,10.50
2017-10-01T10:10:53.584Z,11.00
2017-10-01T10:11:53.591Z,9.50
2017-10-01T10:12:53.602Z,7.90
2017-10-01T10:13:53.612Z,10.40
2017-10-01T10:14:53.620Z,8.80
2017-10-01T10:15:53.631Z,7.10
2017-10-01T10:16:53.642Z,8.70
2017-10-01T10:17:53.652Z,10.40
2017-10-01T10:18:53.663Z,11.50
2017-10-01T10:19:53.672Z,9.70
2017-10-01T10:20:53.701Z,9.70
2017-10-01T10:21:53.694Z,10.30
2017-10-01T10:22:53.708Z,11.90
2017-10-01T10:23:53.717Z,9.10
2017-10-01T10:24:53.726Z,10.70
2017-10-01T10:25:53.739Z,8.40
2017-10-01T10:26:53.748Z,9.50
2017-10-01T10:27:53.759Z,10.00
2017-10-01T10:28:53.767Z,11.70
2017-10-01T10:29:53.776Z,8.80
2017-10-01T10:30:53.784Z,10.10
2017-10-01T10:31:53.800Z,8.90
2017-10-01T10:32:53.807Z,10.60
2017-10-01T10:33:53.812Z,10.40
2017-10-01T10:34:53.822Z,10.10
2017-10-01T10:35:53.831Z,11.00
2017-10-01T10:36:53.840Z,10.80
2017-10-01T10:37:53.851Z,9.90
2017-10-01T10:38:53.862Z,11.30
2017-10-01T10:39:53.873Z,11.60
2017-10-01T10:40:53.883Z,9.80
2017-10-01T10:41:53.896Z,8.30
2017-10-01T10:42:53.901Z,11.50
2017-10-01T10:43:53.913Z,10.20
2017-10-01T10:44:53.924Z,9.40
2017-10-01T10:45:53.927Z,10.20
2017-10-01T10:46:53.931Z,13.70
2017-10-01T10:47:53.940Z,9.40
2017-10-01T10:48:53.950Z,12.30
2017-10-01T10:49:53.974Z,10.30
2017-10-01T10:50:53.969Z,10.60
2017-10-01T10:51:53.981Z,10.00
2017-10-01T10:52:53.989Z,9.20
2017-10-01T10:53:53.998Z,9.80
2017-10-01T10:54:54.011Z,8.70
2017-10-01T10:55:54.022Z,12.90
2017-10-01T10:56:54.029Z,11.80
2017-10-01T10:57:54.040Z,10.20
2017-10-01T10:58:54.048Z,8.30
2017-10-01T10:59:54.058Z,8.70
2017-10-01T11:00:54.066Z,11.40
2017-10-01T11:01:54.076Z,10.70
2017-10-01T11:02:54.080Z,12.90
2017-10-01T11:03:54.090Z,10.20
2017-10-01T11:04:54.100Z,13.40
2017-10-01T11:05:54.107Z,8.30
2017-10-01T11:06:54.116Z,9.20
2017-10-01T11:07:54.125Z,9.20
2017-10-01T11:08:54.132Z,10.70
2017-10-01T11:09:54.140Z,16.60
2017-10-01T11:10:54.153Z,10.40
2017-10-01T11:11:54.161Z,10.70
2017-10-01T11:12:54.169Z,10.90
2017-10-01T11:13:54.177Z,12.10
2017-10-01T11:14:54.185Z,9.40
2017-10-01T11:15:54.192Z,9.90
2017-10-01T11:16:54.200Z,12.30
2017-10-01T11:17:54.207Z,11.90
2017-10-01T11:18:54.211Z,11.90
2017-10-01T11:19:54.220Z,15.60
2017-10-01T11:20:54.230Z,10.70
2017-10-01T11:21:54.233Z,12.40
2017-10-01T11:22:54.242Z,10.20
2017-10-01T11:23:54.249Z,12.10
2017-10-01T11:24:54.255Z,10.00
2017-10-01T11:25:54.261Z,9.60
2017-10-01T11:26:54.271Z,12.80
2017-10-01T11:27:54.279Z,11.50
2017-10-01T11:28:54.283Z,10.80
2017-10-01T11:29:54.289Z,10.00
2017-10-01T11:30:54.297Z,15.20
2017-10-01T11:31:54.302Z,10.80
2017-10-01T11:32:54.307Z,13.00
2017-10-01T11:33:54.311Z,13.10
2017-10-01T11:34:54.312Z,15.00
2017-10-01T11:35:54.319Z,13.80
2017-10-01T11:36:54.320Z,13.40
2017-10-01T11:37:54.326Z,9.10
2017-10-01T11:38:54.335Z,13.80
2017-10-01T11:39:54.336Z,14.10
2017-10-01T11:40:54.338Z,19.10
2017-10-01T11:41:54.343Z,14.00
2017-10-01T11:42:54.351Z,11.00
2017-10-01T11:43:54.356Z,14.20
2017-10-01T11:44:54.359Z,12.10
2017-10-01T11:45:54.364Z,11.20
2017-10-01T11:46:54.367Z,13.30
2017-10-01T11:47:54.371Z,9.80
2017-10-01T11:48:54.375Z,12.10
2017-10-01T11:49:54.378Z,10.70
2017-10-01T11:50:54.377Z,11.80
2017-10-01T11:51:54.379Z,12.40
2017-10-01T11:52:54.384Z,13.80
2017-10-01T11:53:54.386Z,13.00
2017-10-01T11:54:54.394Z,10.50
2017-10-01T11:55:54.397Z,11.90
2017-10-01T11:56:54.400Z,14.20
2017-10-01T11:57:54.401Z,14.70
2017-10-01T11:58:54.402Z,13.40
2017-10-01T11:59:54.404Z,11.10
2017-10-01T12:00:54.407Z,11.70
2017-10-01T12:01:54.411Z,12.90
2017-10-01T12:02:54.412Z,9.80
2017-10-01T12:03:54.441Z,14.40
2017-10-01T12:04:54.419Z,13.40
2017-10-01T12:05:54.422Z,20.20
2017-10-01T12:06:54.429Z,16.70
2017-10-01T12:07:54.432Z,10.30
2017-10-01T12:08:54.433Z,9.90
2017-10-01T12:09:54.435Z,13.50
2017-10-01T12:10:54.439Z,9.40
2017-10-01T12:11:54.442Z,13.20
2017-10-01T12:12:54.444Z,10.80
2017-10-01T12:13:54.446Z,11.70
2017-10-01T12:14:54.444Z,16.50
2017-10-01T12:15:54.448Z,14.20
2017-10-01T12:16:54.449Z,9.60
2017-10-01T12:17:54.452Z,16.50
2017-10-01T12:18:54.456Z,16.90
2017-10-01T12:19:54.457Z,10.30
2017-10-01T12:20:54.459Z,14.10
2017-10-01T12:21:54.462Z,14.60
2017-10-01T12:22:54.469Z,10.30
2017-10-01T12:23:54.470Z,9.90
2017-10-01T12:24:54.473Z,13.90
2017-10-01T12:25:54.475Z,9.30
2017-10-01T12:26:54.477Z,10.00
2017-10-01T12:27:54.480Z,11.90
2017-10-01T12:28:54.482Z,12.40
2017-10-01T12:29:54.493Z,9.00
2017-10-01T12:30:54.481Z,12.50
2017-10-01T12:31:54.484Z,11.90
2017-10-01T12:32:54.485Z,10.00
2017-10-01T12:33:54.489Z,8.30
2017-10-01T12:34:54.490Z,11.50
2017-10-01T12:35:54.492Z,10.50
2017-10-01T12:36:54.494Z,9.60
2017-10-01T12:37:54.495Z,13.00
2017-10-01T12:38:54.502Z,14.20
2017-10-01T12:39:54.505Z,19.70
2017-10-01T12:40:54.506Z,13.50
2017-10-01T12:41:54.508Z,18.20
2017-10-01T12:42:54.511Z,8.60
2017-10-01T12:43:54.513Z,13.20
2017-10-01T12:44:54.513Z,8.30
2017-10-01T12:45:54.517Z,12.20
2017-10-01T12:46:54.514Z,13.60
2017-10-01T12:47:54.514Z,9.50
2017-10-01T12:48:54.517Z,11.50
2017-10-01T12:49:54.520Z,13.60
2017-10-01T12:50:54.522Z,12.00
2017-10-01T12:51:54.525Z,13.10
2017-10-01T12:52:54.524Z,10.80
2017-10-01T12:53:54.526Z,8.50
2017-10-01T12:54:54.533Z,10.90
2017-10-01T12:55:54.537Z,11.30
2017-10-01T12:56:54.535Z,13.80
2017-10-01T12:57:54.539Z,11.10